sensor_id;sensor_type;location;lat;lon;timestamp;temperature;humidity
43338;DHT22;28933;52.492;13.434;2022-08-01T00:01:53;23.40;72.80
43338;DHT22;28933;52.492;13.434;2022-08-01T00:04:19;23.50;72.90
43338;DHT22;28933;52.492;13.434;2022-08-01T00:06:44;23.50;73.60
43338;DHT22;28933;52.492;13.434;2022-08-01T00:09:10;23.50;73.20
43338;DHT22;28933;52.492;13.434;2022-08-01T00:11:35;23.40;73.40
43338;DHT22;28933;52.492;13.434;2022-08-01T00:14:01;23.40;73.80
43338;DHT22;28933;52.492;13.434;2022-08-01T00:16:27;23.40;73.80
43338;DHT22;28933;52.492;13.434;2022-08-01T00:18:53;23.40;73.90
43338;DHT22;28933;52.492;13.434;2022-08-01T00:21:20;23.40;74.40
43338;DHT22;28933;52.492;13.434;2022-08-01T00:23:45;23.40;74.50
43338;DHT22;28933;52.492;13.434;2022-08-01T00:26:14;23.30;75.10
43338;DHT22;28933;52.492;13.434;2022-08-01T00:28:40;23.30;75.80
43338;DHT22;28933;52.492;13.434;2022-08-01T00:31:06;23.30;76.00
43338;DHT22;28933;52.492;13.434;2022-08-01T00:33:32;23.20;76.40
43338;DHT22;28933;52.492;13.434;2022-08-01T00:35:58;23.20;76.80
43338;DHT22;28933;52.492;13.434;2022-08-01T00:38:23;23.20;77.10
43338;DHT22;28933;52.492;13.434;2022-08-01T00:40:49;23.20;77.60
43338;DHT22;28933;52.492;13.434;2022-08-01T00:43:15;23.10;78.10
43338;DHT22;28933;52.492;13.434;2022-08-01T00:45:41;23.10;78.30
43338;DHT22;28933;52.492;13.434;2022-08-01T00:48:08;23.10;78.80
43338;DHT22;28933;52.492;13.434;2022-08-01T00:50:33;23.00;78.90
43338;DHT22;28933;52.492;13.434;2022-08-01T00:52:59;23.10;79.50
43338;DHT22;28933;52.492;13.434;2022-08-01T00:55:26;23.00;80.20
43338;DHT22;28933;52.492;13.434;2022-08-01T00:57:52;22.90;80.70
43338;DHT22;28933;52.492;13.434;2022-08-01T01:00:19;22.90;81.00
43338;DHT22;28933;52.492;13.434;2022-08-01T01:02:44;22.90;81.90
43338;DHT22;28933;52.492;13.434;2022-08-01T01:05:10;22.80;82.30
43338;DHT22;28933;52.492;13.434;2022-08-01T01:07:48;22.80;82.30
43338;DHT22;28933;52.492;13.434;2022-08-01T01:10:39;22.80;83.20
43338;DHT22;28933;52.492;13.434;2022-08-01T01:13:10;22.70;83.70
43338;DHT22;28933;52.492;13.434;2022-08-01T01:15:45;22.60;83.70
43338;DHT22;28933;52.492;13.434;2022-08-01T01:20:56;22.70;84.40
43338;DHT22;28933;52.492;13.434;2022-08-01T01:23:50;22.70;84.50
43338;DHT22;28933;52.492;13.434;2022-08-01T01:32:01;22.80;84.80
43338;DHT22;28933;52.492;13.434;2022-08-01T01:34:28;22.80;84.90
43338;DHT22;28933;52.492;13.434;2022-08-01T01:36:58;22.80;85.50
43338;DHT22;28933;52.492;13.434;2022-08-01T01:39:27;22.80;85.70
43338;DHT22;28933;52.492;13.434;2022-08-01T01:41:54;22.90;85.90
43338;DHT22;28933;52.492;13.434;2022-08-01T01:44:21;22.90;86.10
43338;DHT22;28933;52.492;13.434;2022-08-01T01:46:48;22.90;86.10
43338;DHT22;28933;52.492;13.434;2022-08-01T01:49:15;22.90;86.40
43338;DHT22;28933;52.492;13.434;2022-08-01T01:51:43;22.90;86.50
43338;DHT22;28933;52.492;13.434;2022-08-01T01:54:09;22.90;86.70
43338;DHT22;28933;52.492;13.434;2022-08-01T01:56:35;22.90;86.70
43338;DHT22;28933;52.492;13.434;2022-08-01T01:59:18;22.90;86.80
43338;DHT22;28933;52.492;13.434;2022-08-01T02:01:48;22.90;87.00
43338;DHT22;28933;52.492;13.434;2022-08-01T02:04:16;22.90;87.00
43338;DHT22;28933;52.492;13.434;2022-08-01T02:06:44;22.90;87.00
43338;DHT22;28933;52.492;13.434;2022-08-01T02:09:11;22.90;87.10
43338;DHT22;28933;52.492;13.434;2022-08-01T02:11:39;22.90;87.20
43338;DHT22;28933;52.492;13.434;2022-08-01T02:14:06;22.80;87.30
43338;DHT22;28933;52.492;13.434;2022-08-01T02:16:39;22.80;87.60
43338;DHT22;28933;52.492;13.434;2022-08-01T02:19:05;22.80;87.80
43338;DHT22;28933;52.492;13.434;2022-08-01T02:21:45;22.70;87.80
43338;DHT22;28933;52.492;13.434;2022-08-01T02:24:19;22.70;88.00
43338;DHT22;28933;52.492;13.434;2022-08-01T02:26:50;22.70;88.20
43338;DHT22;28933;52.492;13.434;2022-08-01T02:29:21;22.70;88.40
43338;DHT22;28933;52.492;13.434;2022-08-01T02:31:48;22.60;88.70
43338;DHT22;28933;52.492;13.434;2022-08-01T02:34:18;22.60;88.80
43338;DHT22;28933;52.492;13.434;2022-08-01T02:36:45;22.60;89.10
43338;DHT22;28933;52.492;13.434;2022-08-01T02:39:14;22.60;89.40
43338;DHT22;28933;52.492;13.434;2022-08-01T02:41:43;22.60;89.70
43338;DHT22;28933;52.492;13.434;2022-08-01T02:44:14;22.50;90.00
43338;DHT22;28933;52.492;13.434;2022-08-01T02:46:47;22.40;90.10
43338;DHT22;28933;52.492;13.434;2022-08-01T02:49:14;22.40;90.20
43338;DHT22;28933;52.492;13.434;2022-08-01T02:51:43;22.40;90.40
43338;DHT22;28933;52.492;13.434;2022-08-01T02:54:11;22.40;90.60
43338;DHT22;28933;52.492;13.434;2022-08-01T02:56:38;22.40;90.70
43338;DHT22;28933;52.492;13.434;2022-08-01T02:59:18;22.40;90.80
43338;DHT22;28933;52.492;13.434;2022-08-01T03:01:46;22.40;91.00
43338;DHT22;28933;52.492;13.434;2022-08-01T03:04:13;22.40;91.10
43338;DHT22;28933;52.492;13.434;2022-08-01T03:06:40;22.40;91.10
43338;DHT22;28933;52.492;13.434;2022-08-01T03:09:07;22.40;91.10
43338;DHT22;28933;52.492;13.434;2022-08-01T03:11:35;22.40;91.20
43338;DHT22;28933;52.492;13.434;2022-08-01T03:14:03;22.40;91.20
43338;DHT22;28933;52.492;13.434;2022-08-01T03:16:31;22.40;91.30
43338;DHT22;28933;52.492;13.434;2022-08-01T03:18:58;22.40;91.30
43338;DHT22;28933;52.492;13.434;2022-08-01T03:21:26;22.40;91.40
43338;DHT22;28933;52.492;13.434;2022-08-01T03:23:53;22.40;91.40
43338;DHT22;28933;52.492;13.434;2022-08-01T03:26:27;22.40;91.50
43338;DHT22;28933;52.492;13.434;2022-08-01T03:28:56;22.50;91.50
43338;DHT22;28933;52.492;13.434;2022-08-01T03:31:25;22.40;91.60
43338;DHT22;28933;52.492;13.434;2022-08-01T03:33:51;22.40;91.60
43338;DHT22;28933;52.492;13.434;2022-08-01T03:36:25;22.40;91.70
43338;DHT22;28933;52.492;13.434;2022-08-01T03:38:52;22.40;91.80
43338;DHT22;28933;52.492;13.434;2022-08-01T03:41:24;22.40;91.20
43338;DHT22;28933;52.492;13.434;2022-08-01T03:44:15;22.40;91.80
43338;DHT22;28933;52.492;13.434;2022-08-01T03:46:49;22.30;91.90
43338;DHT22;28933;52.492;13.434;2022-08-01T03:49:21;22.30;92.00
43338;DHT22;28933;52.492;13.434;2022-08-01T03:51:49;22.30;92.10
43338;DHT22;28933;52.492;13.434;2022-08-01T03:54:20;22.30;92.20
43338;DHT22;28933;52.492;13.434;2022-08-01T03:56:48;22.30;92.30
43338;DHT22;28933;52.492;13.434;2022-08-01T03:59:16;22.30;92.40
43338;DHT22;28933;52.492;13.434;2022-08-01T04:01:44;22.30;92.50
43338;DHT22;28933;52.492;13.434;2022-08-01T04:04:09;22.30;92.50
43338;DHT22;28933;52.492;13.434;2022-08-01T04:06:39;22.40;92.50
43338;DHT22;28933;52.492;13.434;2022-08-01T04:09:07;22.30;92.70
43338;DHT22;28933;52.492;13.434;2022-08-01T04:11:33;22.30;92.80
43338;DHT22;28933;52.492;13.434;2022-08-01T04:13:59;22.30;92.80
43338;DHT22;28933;52.492;13.434;2022-08-01T04:16:24;22.40;92.90
43338;DHT22;28933;52.492;13.434;2022-08-01T04:18:51;22.40;92.90
43338;DHT22;28933;52.492;13.434;2022-08-01T04:21:25;22.40;93.00
43338;DHT22;28933;52.492;13.434;2022-08-01T04:23:55;22.40;93.00
43338;DHT22;28933;52.492;13.434;2022-08-01T04:26:24;22.40;93.10
43338;DHT22;28933;52.492;13.434;2022-08-01T04:28:52;22.50;93.10
43338;DHT22;28933;52.492;13.434;2022-08-01T04:31:20;22.50;93.30
43338;DHT22;28933;52.492;13.434;2022-08-01T04:33:49;22.40;93.40
43338;DHT22;28933;52.492;13.434;2022-08-01T04:36:18;22.50;93.50
43338;DHT22;28933;52.492;13.434;2022-08-01T04:38:46;22.40;93.60
43338;DHT22;28933;52.492;13.434;2022-08-01T04:41:13;22.50;93.70
43338;DHT22;28933;52.492;13.434;2022-08-01T04:43:39;22.50;93.70
43338;DHT22;28933;52.492;13.434;2022-08-01T04:46:07;22.50;93.70
43338;DHT22;28933;52.492;13.434;2022-08-01T04:48:36;22.50;93.80
43338;DHT22;28933;52.492;13.434;2022-08-01T04:51:02;22.60;93.80
43338;DHT22;28933;52.492;13.434;2022-08-01T04:53:28;22.60;93.80
43338;DHT22;28933;52.492;13.434;2022-08-01T04:55:53;22.60;93.90
43338;DHT22;28933;52.492;13.434;2022-08-01T04:58:19;22.60;94.10
43338;DHT22;28933;52.492;13.434;2022-08-01T05:00:48;22.60;94.10
43338;DHT22;28933;52.492;13.434;2022-08-01T05:03:13;22.60;94.20
43338;DHT22;28933;52.492;13.434;2022-08-01T05:05:39;22.60;94.30
43338;DHT22;28933;52.492;13.434;2022-08-01T05:08:04;22.50;94.30
43338;DHT22;28933;52.492;13.434;2022-08-01T05:10:31;22.50;94.40
43338;DHT22;28933;52.492;13.434;2022-08-01T05:12:57;22.50;94.50
43338;DHT22;28933;52.492;13.434;2022-08-01T05:15:22;22.50;94.50
43338;DHT22;28933;52.492;13.434;2022-08-01T05:17:48;22.50;94.60
43338;DHT22;28933;52.492;13.434;2022-08-01T05:20:13;22.50;94.70
43338;DHT22;28933;52.492;13.434;2022-08-01T05:22:40;22.50;94.70
43338;DHT22;28933;52.492;13.434;2022-08-01T05:25:09;22.60;94.80
43338;DHT22;28933;52.492;13.434;2022-08-01T05:27:35;22.60;95.10
43338;DHT22;28933;52.492;13.434;2022-08-01T05:30:08;22.50;95.00
43338;DHT22;28933;52.492;13.434;2022-08-01T05:32:34;22.50;95.00
43338;DHT22;28933;52.492;13.434;2022-08-01T05:34:59;22.50;95.10
43338;DHT22;28933;52.492;13.434;2022-08-01T05:37:25;22.50;95.10
43338;DHT22;28933;52.492;13.434;2022-08-01T05:39:51;22.50;95.10
43338;DHT22;28933;52.492;13.434;2022-08-01T05:42:16;22.60;95.20
43338;DHT22;28933;52.492;13.434;2022-08-01T05:44:42;22.60;95.30
43338;DHT22;28933;52.492;13.434;2022-08-01T05:47:07;22.50;95.50
43338;DHT22;28933;52.492;13.434;2022-08-01T05:49:33;22.50;95.50
43338;DHT22;28933;52.492;13.434;2022-08-01T05:51:58;22.50;95.60
43338;DHT22;28933;52.492;13.434;2022-08-01T05:54:28;22.60;95.50
43338;DHT22;28933;52.492;13.434;2022-08-01T05:56:54;22.60;95.50
43338;DHT22;28933;52.492;13.434;2022-08-01T05:59:25;22.60;95.70
43338;DHT22;28933;52.492;13.434;2022-08-01T06:01:50;22.60;95.70
43338;DHT22;28933;52.492;13.434;2022-08-01T06:04:16;22.70;95.80
43338;DHT22;28933;52.492;13.434;2022-08-01T06:06:44;22.70;95.70
43338;DHT22;28933;52.492;13.434;2022-08-01T06:09:10;22.70;95.70
43338;DHT22;28933;52.492;13.434;2022-08-01T06:11:35;22.70;95.80
43338;DHT22;28933;52.492;13.434;2022-08-01T06:14:01;22.70;95.90
43338;DHT22;28933;52.492;13.434;2022-08-01T06:16:27;22.80;95.90
43338;DHT22;28933;52.492;13.434;2022-08-01T06:18:52;22.80;95.90
43338;DHT22;28933;52.492;13.434;2022-08-01T06:21:18;22.80;95.90
43338;DHT22;28933;52.492;13.434;2022-08-01T06:23:44;22.90;95.80
43338;DHT22;28933;52.492;13.434;2022-08-01T06:26:09;22.90;95.70
43338;DHT22;28933;52.492;13.434;2022-08-01T06:28:36;22.90;95.70
43338;DHT22;28933;52.492;13.434;2022-08-01T06:31:01;22.80;95.70
43338;DHT22;28933;52.492;13.434;2022-08-01T06:33:27;22.80;95.70
43338;DHT22;28933;52.492;13.434;2022-08-01T06:35:53;22.80;96.00
43338;DHT22;28933;52.492;13.434;2022-08-01T06:38:19;22.80;96.00
43338;DHT22;28933;52.492;13.434;2022-08-01T06:40:44;22.80;96.10
43338;DHT22;28933;52.492;13.434;2022-08-01T06:43:10;22.80;96.20
43338;DHT22;28933;52.492;13.434;2022-08-01T06:45:38;22.80;96.20
43338;DHT22;28933;52.492;13.434;2022-08-01T06:48:04;22.80;96.20
43338;DHT22;28933;52.492;13.434;2022-08-01T06:50:30;22.80;96.40
43338;DHT22;28933;52.492;13.434;2022-08-01T06:52:56;22.90;96.20
43338;DHT22;28933;52.492;13.434;2022-08-01T06:55:21;23.00;96.10
43338;DHT22;28933;52.492;13.434;2022-08-01T06:57:51;23.00;96.00
43338;DHT22;28933;52.492;13.434;2022-08-01T07:00:21;23.00;96.10
43338;DHT22;28933;52.492;13.434;2022-08-01T07:02:52;23.10;96.00
43338;DHT22;28933;52.492;13.434;2022-08-01T07:05:18;23.30;95.90
43338;DHT22;28933;52.492;13.434;2022-08-01T07:07:44;23.40;95.60
43338;DHT22;28933;52.492;13.434;2022-08-01T07:10:10;23.50;95.40
43338;DHT22;28933;52.492;13.434;2022-08-01T07:12:37;23.50;95.10
43338;DHT22;28933;52.492;13.434;2022-08-01T07:15:07;23.60;95.10
43338;DHT22;28933;52.492;13.434;2022-08-01T07:17:41;23.60;95.20
43338;DHT22;28933;52.492;13.434;2022-08-01T07:20:09;23.60;94.80
43338;DHT22;28933;52.492;13.434;2022-08-01T07:22:35;23.60;94.70
43338;DHT22;28933;52.492;13.434;2022-08-01T07:25:02;23.60;94.60
43338;DHT22;28933;52.492;13.434;2022-08-01T07:27:27;23.60;95.00
43338;DHT22;28933;52.492;13.434;2022-08-01T07:29:53;23.60;94.70
43338;DHT22;28933;52.492;13.434;2022-08-01T07:32:19;23.60;94.50
43338;DHT22;28933;52.492;13.434;2022-08-01T07:34:44;23.60;94.60
43338;DHT22;28933;52.492;13.434;2022-08-01T07:37:12;23.60;94.50
43338;DHT22;28933;52.492;13.434;2022-08-01T07:39:38;23.60;94.40
43338;DHT22;28933;52.492;13.434;2022-08-01T07:42:03;23.50;94.40
43338;DHT22;28933;52.492;13.434;2022-08-01T07:44:29;23.50;94.50
43338;DHT22;28933;52.492;13.434;2022-08-01T07:46:54;23.50;94.60
43338;DHT22;28933;52.492;13.434;2022-08-01T07:49:20;23.40;94.60
43338;DHT22;28933;52.492;13.434;2022-08-01T07:51:47;23.50;94.70
43338;DHT22;28933;52.492;13.434;2022-08-01T07:54:13;23.40;94.70
43338;DHT22;28933;52.492;13.434;2022-08-01T07:56:38;23.40;94.70
43338;DHT22;28933;52.492;13.434;2022-08-01T07:59:04;23.40;94.60
43338;DHT22;28933;52.492;13.434;2022-08-01T08:01:29;23.50;94.50
43338;DHT22;28933;52.492;13.434;2022-08-01T08:03:55;23.60;94.30
43338;DHT22;28933;52.492;13.434;2022-08-01T08:06:20;23.60;94.40
43338;DHT22;28933;52.492;13.434;2022-08-01T08:08:46;23.60;94.30
43338;DHT22;28933;52.492;13.434;2022-08-01T08:11:12;23.60;94.10
43338;DHT22;28933;52.492;13.434;2022-08-01T08:13:37;23.50;94.00
43338;DHT22;28933;52.492;13.434;2022-08-01T08:16:03;23.50;94.00
43338;DHT22;28933;52.492;13.434;2022-08-01T08:18:29;23.40;94.00
43338;DHT22;28933;52.492;13.434;2022-08-01T08:20:54;23.40;94.00
43338;DHT22;28933;52.492;13.434;2022-08-01T08:23:20;23.40;94.00
43338;DHT22;28933;52.492;13.434;2022-08-01T08:26:05;23.30;94.00
43338;DHT22;28933;52.492;13.434;2022-08-01T08:28:31;23.20;94.20
43338;DHT22;28933;52.492;13.434;2022-08-01T08:30:56;23.20;94.20
43338;DHT22;28933;52.492;13.434;2022-08-01T08:33:22;23.20;94.10
43338;DHT22;28933;52.492;13.434;2022-08-01T08:35:47;23.30;94.00
43338;DHT22;28933;52.492;13.434;2022-08-01T08:38:13;23.30;94.00
43338;DHT22;28933;52.492;13.434;2022-08-01T08:40:39;23.40;94.10
43338;DHT22;28933;52.492;13.434;2022-08-01T08:43:05;23.40;93.90
43338;DHT22;28933;52.492;13.434;2022-08-01T08:45:31;23.30;93.80
43338;DHT22;28933;52.492;13.434;2022-08-01T08:47:58;23.40;93.80
43338;DHT22;28933;52.492;13.434;2022-08-01T08:50:25;23.40;93.70
43338;DHT22;28933;52.492;13.434;2022-08-01T08:52:52;23.60;93.80
43338;DHT22;28933;52.492;13.434;2022-08-01T08:55:20;23.70;93.40
43338;DHT22;28933;52.492;13.434;2022-08-01T08:57:46;23.90;93.20
43338;DHT22;28933;52.492;13.434;2022-08-01T09:00:13;23.90;92.90
43338;DHT22;28933;52.492;13.434;2022-08-01T09:02:46;24.00;92.80
43338;DHT22;28933;52.492;13.434;2022-08-01T09:05:12;24.00;92.60
43338;DHT22;28933;52.492;13.434;2022-08-01T09:07:38;23.90;92.50
43338;DHT22;28933;52.492;13.434;2022-08-01T09:10:07;23.90;92.50
43338;DHT22;28933;52.492;13.434;2022-08-01T09:12:35;24.00;92.40
43338;DHT22;28933;52.492;13.434;2022-08-01T09:15:01;24.00;92.60
43338;DHT22;28933;52.492;13.434;2022-08-01T09:17:27;24.10;92.40
43338;DHT22;28933;52.492;13.434;2022-08-01T09:19:54;24.20;92.00
43338;DHT22;28933;52.492;13.434;2022-08-01T09:22:22;24.20;91.60
43338;DHT22;28933;52.492;13.434;2022-08-01T09:27:24;24.20;91.40
43338;DHT22;28933;52.492;13.434;2022-08-01T09:29:52;24.20;91.40
43338;DHT22;28933;52.492;13.434;2022-08-01T09:32:19;24.20;91.30
43338;DHT22;28933;52.492;13.434;2022-08-01T09:34:44;24.20;91.10
43338;DHT22;28933;52.492;13.434;2022-08-01T09:37:12;24.20;91.00
43338;DHT22;28933;52.492;13.434;2022-08-01T09:39:39;24.20;91.00
43338;DHT22;28933;52.492;13.434;2022-08-01T09:44:46;24.20;91.20
43338;DHT22;28933;52.492;13.434;2022-08-01T09:47:13;24.20;91.10
43338;DHT22;28933;52.492;13.434;2022-08-01T09:49:40;24.30;91.10
43338;DHT22;28933;52.492;13.434;2022-08-01T09:52:17;24.30;91.00
43338;DHT22;28933;52.492;13.434;2022-08-01T09:54:51;24.30;90.80
43338;DHT22;28933;52.492;13.434;2022-08-01T09:57:18;24.30;90.80
43338;DHT22;28933;52.492;13.434;2022-08-01T09:59:46;24.30;90.80
43338;DHT22;28933;52.492;13.434;2022-08-01T10:02:13;24.30;90.80
43338;DHT22;28933;52.492;13.434;2022-08-01T10:04:50;24.20;90.80
43338;DHT22;28933;52.492;13.434;2022-08-01T10:07:17;24.20;90.80
43338;DHT22;28933;52.492;13.434;2022-08-01T10:09:44;24.20;90.90
43338;DHT22;28933;52.492;13.434;2022-08-01T10:12:15;24.10;91.00
43338;DHT22;28933;52.492;13.434;2022-08-01T10:14:46;24.10;91.10
43338;DHT22;28933;52.492;13.434;2022-08-01T10:17:15;24.10;91.20
43338;DHT22;28933;52.492;13.434;2022-08-01T10:19:42;24.10;91.20
43338;DHT22;28933;52.492;13.434;2022-08-01T10:22:09;24.20;91.20
43338;DHT22;28933;52.492;13.434;2022-08-01T10:24:39;24.20;91.00
43338;DHT22;28933;52.492;13.434;2022-08-01T10:27:10;24.30;90.90
43338;DHT22;28933;52.492;13.434;2022-08-01T10:29:56;24.40;90.80
43338;DHT22;28933;52.492;13.434;2022-08-01T10:32:23;24.50;90.60
43338;DHT22;28933;52.492;13.434;2022-08-01T10:34:52;24.50;90.60
43338;DHT22;28933;52.492;13.434;2022-08-01T10:37:18;24.50;90.60
43338;DHT22;28933;52.492;13.434;2022-08-01T10:39:43;24.50;90.50
43338;DHT22;28933;52.492;13.434;2022-08-01T10:42:11;24.60;90.40
43338;DHT22;28933;52.492;13.434;2022-08-01T10:44:37;24.60;90.40
43338;DHT22;28933;52.492;13.434;2022-08-01T10:49:34;24.60;90.30
43338;DHT22;28933;52.492;13.434;2022-08-01T10:52:02;24.60;90.20
43338;DHT22;28933;52.492;13.434;2022-08-01T10:54:27;24.60;90.30
43338;DHT22;28933;52.492;13.434;2022-08-01T10:56:53;24.60;90.20
43338;DHT22;28933;52.492;13.434;2022-08-01T10:59:27;24.60;90.30
43338;DHT22;28933;52.492;13.434;2022-08-01T11:02:01;24.60;90.40
43338;DHT22;28933;52.492;13.434;2022-08-01T11:07:07;24.50;90.20
43338;DHT22;28933;52.492;13.434;2022-08-01T11:09:41;24.40;90.30
43338;DHT22;28933;52.492;13.434;2022-08-01T11:12:10;24.40;90.30
43338;DHT22;28933;52.492;13.434;2022-08-01T11:17:35;24.40;90.50
43338;DHT22;28933;52.492;13.434;2022-08-01T11:22:30;24.60;90.30
43338;DHT22;28933;52.492;13.434;2022-08-01T11:24:57;24.70;90.30
43338;DHT22;28933;52.492;13.434;2022-08-01T11:27:28;24.70;90.20
43338;DHT22;28933;52.492;13.434;2022-08-01T11:35:17;24.70;90.10
43338;DHT22;28933;52.492;13.434;2022-08-01T11:37:43;24.60;90.50
43338;DHT22;28933;52.492;13.434;2022-08-01T11:40:26;24.30;91.50
43338;DHT22;28933;52.492;13.434;2022-08-01T11:45:50;23.90;92.30
43338;DHT22;28933;52.492;13.434;2022-08-01T11:48:20;23.80;92.80
43338;DHT22;28933;52.492;13.434;2022-08-01T11:50:46;23.70;93.10
43338;DHT22;28933;52.492;13.434;2022-08-01T11:53:12;23.70;93.30
43338;DHT22;28933;52.492;13.434;2022-08-01T11:55:47;23.70;93.40
43338;DHT22;28933;52.492;13.434;2022-08-01T11:58:24;23.70;93.40
43338;DHT22;28933;52.492;13.434;2022-08-01T12:00:53;23.80;93.20
43338;DHT22;28933;52.492;13.434;2022-08-01T12:03:27;23.90;93.00
43338;DHT22;28933;52.492;13.434;2022-08-01T12:05:54;24.00;92.70
43338;DHT22;28933;52.492;13.434;2022-08-01T12:08:27;24.20;92.60
43338;DHT22;28933;52.492;13.434;2022-08-01T12:10:53;24.30;92.30
43338;DHT22;28933;52.492;13.434;2022-08-01T12:13:19;24.50;92.10
43338;DHT22;28933;52.492;13.434;2022-08-01T12:15:47;24.70;92.10
43338;DHT22;28933;52.492;13.434;2022-08-01T12:18:13;24.80;91.80
43338;DHT22;28933;52.492;13.434;2022-08-01T12:20:42;24.90;91.10
43338;DHT22;28933;52.492;13.434;2022-08-01T12:23:13;25.00;91.20
43338;DHT22;28933;52.492;13.434;2022-08-01T12:25:40;25.20;90.90
43338;DHT22;28933;52.492;13.434;2022-08-01T12:28:09;25.40;90.70
43338;DHT22;28933;52.492;13.434;2022-08-01T12:30:36;25.50;90.40
43338;DHT22;28933;52.492;13.434;2022-08-01T12:33:04;25.60;90.00
43338;DHT22;28933;52.492;13.434;2022-08-01T12:35:30;25.60;88.90
43338;DHT22;28933;52.492;13.434;2022-08-01T12:37:58;25.60;88.30
43338;DHT22;28933;52.492;13.434;2022-08-01T12:40:29;25.60;88.30
43338;DHT22;28933;52.492;13.434;2022-08-01T12:42:58;25.60;88.40
43338;DHT22;28933;52.492;13.434;2022-08-01T12:45:38;25.70;88.30
43338;DHT22;28933;52.492;13.434;2022-08-01T12:48:16;25.80;87.30
43338;DHT22;28933;52.492;13.434;2022-08-01T12:50:45;25.80;87.00
43338;DHT22;28933;52.492;13.434;2022-08-01T12:53:12;25.90;87.20
43338;DHT22;28933;52.492;13.434;2022-08-01T12:55:49;26.00;87.20
43338;DHT22;28933;52.492;13.434;2022-08-01T12:58:15;26.20;87.40
43338;DHT22;28933;52.492;13.434;2022-08-01T13:00:44;26.30;87.50
43338;DHT22;28933;52.492;13.434;2022-08-01T13:03:14;26.40;86.10
43338;DHT22;28933;52.492;13.434;2022-08-01T13:08:18;26.50;85.40
43338;DHT22;28933;52.492;13.434;2022-08-01T13:10:45;26.60;85.80
43338;DHT22;28933;52.492;13.434;2022-08-01T13:13:12;26.70;85.00
43338;DHT22;28933;52.492;13.434;2022-08-01T13:15:39;26.80;84.10
43338;DHT22;28933;52.492;13.434;2022-08-01T13:18:27;26.80;83.90
43338;DHT22;28933;52.492;13.434;2022-08-01T13:21:20;26.80;83.80
43338;DHT22;28933;52.492;13.434;2022-08-01T13:26:51;26.60;83.20
43338;DHT22;28933;52.492;13.434;2022-08-01T13:29:28;26.50;83.20
43338;DHT22;28933;52.492;13.434;2022-08-01T13:31:54;26.40;83.60
43338;DHT22;28933;52.492;13.434;2022-08-01T13:34:40;26.30;83.80
43338;DHT22;28933;52.492;13.434;2022-08-01T13:37:06;26.30;83.80
43338;DHT22;28933;52.492;13.434;2022-08-01T13:39:31;26.20;83.70
43338;DHT22;28933;52.492;13.434;2022-08-01T13:42:13;26.20;83.70
43338;DHT22;28933;52.492;13.434;2022-08-01T13:44:40;26.30;83.70
43338;DHT22;28933;52.492;13.434;2022-08-01T13:47:07;26.30;83.40
43338;DHT22;28933;52.492;13.434;2022-08-01T13:49:32;26.40;83.60
43338;DHT22;28933;52.492;13.434;2022-08-01T13:51:59;26.30;83.50
43338;DHT22;28933;52.492;13.434;2022-08-01T13:54:25;26.30;83.30
43338;DHT22;28933;52.492;13.434;2022-08-01T13:56:51;26.30;83.80
43338;DHT22;28933;52.492;13.434;2022-08-01T13:59:17;26.20;83.50
43338;DHT22;28933;52.492;13.434;2022-08-01T14:01:43;26.10;83.80
43338;DHT22;28933;52.492;13.434;2022-08-01T14:04:08;25.90;83.70
43338;DHT22;28933;52.492;13.434;2022-08-01T14:06:34;25.80;84.20
43338;DHT22;28933;52.492;13.434;2022-08-01T14:09:00;25.60;84.40
43338;DHT22;28933;52.492;13.434;2022-08-01T14:11:26;25.60;84.80
43338;DHT22;28933;52.492;13.434;2022-08-01T14:13:52;25.50;84.60
43338;DHT22;28933;52.492;13.434;2022-08-01T14:16:17;25.60;84.90
43338;DHT22;28933;52.492;13.434;2022-08-01T14:18:43;25.60;85.00
43338;DHT22;28933;52.492;13.434;2022-08-01T14:21:08;25.60;84.70
43338;DHT22;28933;52.492;13.434;2022-08-01T14:23:34;25.70;84.50
43338;DHT22;28933;52.492;13.434;2022-08-01T14:26:00;25.80;84.70
43338;DHT22;28933;52.492;13.434;2022-08-01T14:28:25;25.80;84.10
43338;DHT22;28933;52.492;13.434;2022-08-01T14:30:53;25.90;83.00
43338;DHT22;28933;52.492;13.434;2022-08-01T14:33:21;26.10;82.00
43338;DHT22;28933;52.492;13.434;2022-08-01T14:35:47;26.20;81.00
43338;DHT22;28933;52.492;13.434;2022-08-01T14:38:12;26.30;79.70
43338;DHT22;28933;52.492;13.434;2022-08-01T14:40:38;26.40;80.00
43338;DHT22;28933;52.492;13.434;2022-08-01T14:43:03;26.60;78.30
43338;DHT22;28933;52.492;13.434;2022-08-01T14:45:29;26.80;77.80
43338;DHT22;28933;52.492;13.434;2022-08-01T14:47:55;27.00;77.60
43338;DHT22;28933;52.492;13.434;2022-08-01T14:50:20;27.20;76.30
43338;DHT22;28933;52.492;13.434;2022-08-01T14:52:46;27.40;75.70
43338;DHT22;28933;52.492;13.434;2022-08-01T14:55:13;27.50;75.20
43338;DHT22;28933;52.492;13.434;2022-08-01T14:57:39;27.60;75.60
43338;DHT22;28933;52.492;13.434;2022-08-01T15:00:07;27.60;75.30
43338;DHT22;28933;52.492;13.434;2022-08-01T15:02:36;27.60;74.80
43338;DHT22;28933;52.492;13.434;2022-08-01T15:05:02;27.50;75.30
43338;DHT22;28933;52.492;13.434;2022-08-01T15:07:28;27.30;75.20
43338;DHT22;28933;52.492;13.434;2022-08-01T15:09:53;27.20;75.60
43338;DHT22;28933;52.492;13.434;2022-08-01T15:12:19;27.10;76.00
43338;DHT22;28933;52.492;13.434;2022-08-01T15:14:44;27.00;77.00
43338;DHT22;28933;52.492;13.434;2022-08-01T15:17:13;26.90;78.70
43338;DHT22;28933;52.492;13.434;2022-08-01T15:19:44;26.70;79.80
43338;DHT22;28933;52.492;13.434;2022-08-01T15:22:09;26.50;80.90
43338;DHT22;28933;52.492;13.434;2022-08-01T15:24:35;26.40;81.40
43338;DHT22;28933;52.492;13.434;2022-08-01T15:27:01;26.30;81.90
43338;DHT22;28933;52.492;13.434;2022-08-01T15:29:26;26.20;82.10
43338;DHT22;28933;52.492;13.434;2022-08-01T15:31:52;26.10;82.00
43338;DHT22;28933;52.492;13.434;2022-08-01T15:34:17;26.00;81.90
43338;DHT22;28933;52.492;13.434;2022-08-01T15:36:43;25.90;81.70
43338;DHT22;28933;52.492;13.434;2022-08-01T15:39:09;25.90;81.40
43338;DHT22;28933;52.492;13.434;2022-08-01T15:41:35;25.80;81.40
43338;DHT22;28933;52.492;13.434;2022-08-01T15:44:01;25.90;81.40
43338;DHT22;28933;52.492;13.434;2022-08-01T15:46:26;25.90;81.60
43338;DHT22;28933;52.492;13.434;2022-08-01T15:48:52;26.00;81.20
43338;DHT22;28933;52.492;13.434;2022-08-01T15:51:17;26.00;81.10
43338;DHT22;28933;52.492;13.434;2022-08-01T15:53:43;26.10;81.00
43338;DHT22;28933;52.492;13.434;2022-08-01T15:56:10;26.20;80.70
43338;DHT22;28933;52.492;13.434;2022-08-01T15:58:36;26.20;80.70